createdAt,value
2019-04-16T00:00:15.401Z,11.6
2019-04-16T00:03:15.827Z,11.6
2019-04-16T00:06:15.484Z,11.5
2019-04-16T00:09:15.149Z,11.5
2019-04-16T00:12:15.530Z,11.5
2019-04-16T00:15:15.457Z,11.4
2019-04-16T00:18:18.444Z,11.4
2019-04-16T00:21:15.862Z,11.3
2019-04-16T00:24:18.412Z,11.3
2019-04-16T00:27:15.611Z,11.3
2019-04-16T00:30:15.899Z,11.3
2019-04-16T00:33:15.474Z,11.3
2019-04-16T00:36:15.364Z,11.2
2019-04-16T00:39:15.409Z,11.2
2019-04-16T00:42:15.737Z,11.1
2019-04-16T00:45:15.261Z,11.1
2019-04-16T00:48:15.704Z,11.0
2019-04-16T00:51:15.374Z,11.0
2019-04-16T00:54:15.837Z,10.9
2019-04-16T00:57:18.011Z,10.9
2019-04-16T01:00:15.218Z,10.8
2019-04-16T01:03:15.792Z,10.7
2019-04-16T01:06:15.351Z,10.7
2019-04-16T01:09:15.823Z,10.7
2019-04-16T01:12:15.223Z,10.6
2019-04-16T01:15:15.627Z,10.6
2019-04-16T01:18:15.208Z,10.6
2019-04-16T01:21:15.824Z,10.5
2019-04-16T01:24:17.614Z,10.5
2019-04-16T01:27:15.776Z,10.4
2019-04-16T01:30:14.968Z,10.4
2019-04-16T01:33:15.347Z,10.4
2019-04-16T01:36:15.627Z,10.4
2019-04-16T01:39:18.156Z,10.3
2019-04-16T01:42:15.672Z,10.3
2019-04-16T01:45:15.187Z,10.3
2019-04-16T01:48:15.833Z,10.3
2019-04-16T01:51:16.207Z,10.2
2019-04-16T01:54:15.803Z,10.2
2019-04-16T01:57:15.480Z,10.2
2019-04-16T02:00:15.753Z,10.2
2019-04-16T02:03:17.770Z,10.2
2019-04-16T02:06:15.097Z,10.1
2019-04-16T02:09:22.370Z,10.1
2019-04-16T02:12:15.407Z,10.0
2019-04-16T02:15:14.982Z,10.0
2019-04-16T02:18:15.596Z,10.0
2019-04-16T02:21:15.872Z,10.0
2019-04-16T02:24:18.590Z,10.0
2019-04-16T02:27:15.462Z,9.9
2019-04-16T02:30:15.105Z,9.9
2019-04-16T02:33:15.216Z,9.8
2019-04-16T02:36:15.688Z,9.8
2019-04-16T02:39:15.359Z,9.8
2019-04-16T02:42:14.983Z,9.8
2019-04-16T02:45:15.673Z,9.7
2019-04-16T02:48:16.724Z,9.8
2019-04-16T02:51:15.860Z,9.7
2019-04-16T02:54:15.668Z,9.7
2019-04-16T02:57:15.756Z,9.7
2019-04-16T03:00:17.945Z,9.7
2019-04-16T03:03:15.286Z,9.7
2019-04-16T03:06:15.248Z,9.7
2019-04-16T03:09:15.284Z,9.7
2019-04-16T03:12:17.606Z,9.6
2019-04-16T03:15:15.391Z,9.7
2019-04-16T03:18:16.177Z,9.6
2019-04-16T03:21:15.159Z,9.6
2019-04-16T03:24:15.962Z,9.6
2019-04-16T03:27:15.590Z,9.6
2019-04-16T03:30:15.760Z,9.6
2019-04-16T03:33:15.857Z,9.6
2019-04-16T03:36:15.089Z,9.5
2019-04-16T03:39:16.047Z,9.5
2019-04-16T03:42:15.806Z,9.5
2019-04-16T03:45:15.544Z,9.4
2019-04-16T03:48:15.135Z,9.4
2019-04-16T03:51:15.830Z,9.4
2019-04-16T03:54:15.488Z,9.4
2019-04-16T03:57:15.214Z,9.3
2019-04-16T04:00:15.613Z,9.3
2019-04-16T04:03:15.320Z,9.3
2019-04-16T04:06:15.828Z,9.3
2019-04-16T04:09:15.447Z,9.3
2019-04-16T04:12:15.185Z,9.2
2019-04-16T04:15:15.653Z,9.3
2019-04-16T04:18:15.191Z,9.2
2019-04-16T04:21:15.136Z,9.2
2019-04-16T04:24:15.556Z,9.2
2019-04-16T04:27:18.718Z,9.2
2019-04-16T04:30:15.060Z,9.1
2019-04-16T04:33:15.258Z,9.2
2019-04-16T04:36:18.641Z,9.2
2019-04-16T04:39:16.227Z,9.3
2019-04-16T04:42:18.353Z,9.3
2019-04-16T04:45:15.819Z,9.3
2019-04-16T04:48:15.638Z,9.3
2019-04-16T04:51:15.314Z,9.3
2019-04-16T04:54:15.019Z,9.3
2019-04-16T04:57:15.669Z,9.4
2019-04-16T05:00:15.784Z,9.5
2019-04-16T05:03:16.743Z,9.6
2019-04-16T05:06:15.790Z,9.8
2019-04-16T05:09:15.706Z,10.2
2019-04-16T05:12:17.851Z,10.6
2019-04-16T05:15:16.218Z,11.2
2019-04-16T05:18:15.214Z,11.7
2019-04-16T05:21:18.910Z,12.3
2019-04-16T05:24:15.070Z,12.8
2019-04-16T05:27:15.473Z,13.3
2019-04-16T05:30:20.418Z,13.7
2019-04-16T05:33:15.570Z,14.3
2019-04-16T05:36:15.722Z,14.7
2019-04-16T05:39:15.347Z,15.0
2019-04-16T05:42:15.524Z,15.2
2019-04-16T05:45:15.347Z,15.4
2019-04-16T05:48:15.059Z,15.8
2019-04-16T05:51:15.805Z,16.1
2019-04-16T05:54:15.757Z,16.5
2019-04-16T05:57:15.437Z,17.1
2019-04-16T06:00:15.672Z,17.6
2019-04-16T06:03:20.638Z,17.8
2019-04-16T06:06:15.000Z,18.3
2019-04-16T06:09:15.172Z,18.2
2019-04-16T06:12:15.708Z,18.5
2019-04-16T06:15:15.898Z,18.6
2019-04-16T06:18:18.062Z,18.0
2019-04-16T06:21:15.839Z,17.6
2019-04-16T06:24:15.742Z,17.5
2019-04-16T06:27:15.467Z,17.4
2019-04-16T06:30:15.595Z,17.2
2019-04-16T06:33:15.476Z,17.1
2019-04-16T06:36:15.131Z,16.7
2019-04-16T06:39:15.086Z,16.4
2019-04-16T06:42:15.439Z,16.4
2019-04-16T06:45:15.989Z,16.9
2019-04-16T06:48:15.507Z,17.6
2019-04-16T06:51:15.276Z,18.6
2019-04-16T06:54:15.659Z,19.2
2019-04-16T06:57:15.606Z,19.2
2019-04-16T07:00:15.283Z,19.6
2019-04-16T07:03:15.462Z,19.5
2019-04-16T07:06:15.725Z,19.2
2019-04-16T07:09:14.955Z,18.6
2019-04-16T07:12:15.385Z,18.2
2019-04-16T07:15:15.767Z,17.7
2019-04-16T07:18:16.628Z,17.5
2019-04-16T07:21:17.592Z,17.5
2019-04-16T07:24:15.121Z,17.6
2019-04-16T07:27:19.634Z,17.8
2019-04-16T07:30:19.464Z,18.2
2019-04-16T07:33:15.520Z,18.6
2019-04-16T07:36:15.274Z,18.9
2019-04-16T07:39:28.712Z,18.8
2019-04-16T07:42:21.375Z,18.6
2019-04-16T07:45:15.254Z,19.0
2019-04-16T07:48:15.900Z,19.5
2019-04-16T07:51:15.086Z,20.0
2019-04-16T07:54:15.254Z,20.2
2019-04-16T07:57:15.525Z,20.1
2019-04-16T08:00:15.312Z,20.3
2019-04-16T08:03:15.187Z,20.3
2019-04-16T08:06:15.125Z,20.2
2019-04-16T08:09:15.836Z,20.4
2019-04-16T08:12:29.358Z,20.8
2019-04-16T08:15:15.764Z,21.4
2019-04-16T08:18:15.722Z,21.4
2019-04-16T08:21:15.561Z,21.3
2019-04-16T08:24:15.331Z,21.7
2019-04-16T08:27:19.059Z,22.4
2019-04-16T08:30:15.002Z,23.0
2019-04-16T08:33:15.630Z,23.8
2019-04-16T08:36:15.912Z,24.3
2019-04-16T08:39:15.726Z,24.6
2019-04-16T08:42:15.387Z,25.1
2019-04-16T08:45:15.349Z,25.9
2019-04-16T08:48:18.457Z,27.0
2019-04-16T08:51:29.369Z,28.4
2019-04-16T08:54:17.670Z,28.6
2019-04-16T08:57:15.457Z,28.8
2019-04-16T09:00:15.521Z,29.2
2019-04-16T09:03:15.448Z,30.0
2019-04-16T09:06:15.352Z,29.9
2019-04-16T09:09:18.404Z,29.3
2019-04-16T09:12:15.217Z,29.7
2019-04-16T09:15:15.316Z,30.0
2019-04-16T09:18:15.924Z,30.0
2019-04-16T09:21:15.556Z,29.5
2019-04-16T09:24:15.346Z,29.9
2019-04-16T09:27:15.928Z,30.8
2019-04-16T09:30:17.764Z,31.5
2019-04-16T09:33:15.214Z,31.4
2019-04-16T09:36:15.686Z,30.9
2019-04-16T09:39:15.786Z,30.9
2019-04-16T09:42:15.702Z,30.8
2019-04-16T09:45:15.688Z,30.8
2019-04-16T09:48:15.338Z,30.3
2019-04-16T09:51:19.046Z,30.3
2019-04-16T09:54:15.832Z,30.0
2019-04-16T09:57:15.553Z,30.3
2019-04-16T10:00:17.078Z,30.6
2019-04-16T10:03:15.652Z,31.1
2019-04-16T10:06:15.378Z,31.4
2019-04-16T10:09:20.028Z,31.8
2019-04-16T10:12:15.331Z,32.3
2019-04-16T10:15:15.129Z,32.1
2019-04-16T10:18:15.121Z,32.1
2019-04-16T10:21:18.728Z,31.7
2019-04-16T10:24:15.384Z,31.7
2019-04-16T10:27:15.556Z,31.8
2019-04-16T10:30:15.657Z,32.0
2019-04-16T10:33:15.221Z,32.5
2019-04-16T10:36:15.849Z,33.2
2019-04-16T10:39:15.681Z,33.3
2019-04-16T10:42:15.009Z,32.9
2019-04-16T10:45:15.185Z,33.0
2019-04-16T10:48:15.943Z,33.2
2019-04-16T10:51:16.254Z,33.9
2019-04-16T10:54:15.759Z,34.5
2019-04-16T10:57:15.920Z,34.8
2019-04-16T11:00:15.165Z,35.1
2019-04-16T11:03:15.759Z,35.7
2019-04-16T11:06:15.442Z,35.0
2019-04-16T11:09:15.042Z,34.2
2019-04-16T11:12:15.814Z,33.3
2019-04-16T11:15:15.696Z,32.6
2019-04-16T11:18:15.362Z,32.5
2019-04-16T11:21:15.236Z,32.2
2019-04-16T11:24:15.858Z,32.0
2019-04-16T11:27:15.191Z,31.7
2019-04-16T11:30:15.974Z,32.0
2019-04-16T11:33:15.723Z,32.1
2019-04-16T11:36:19.890Z,31.8
2019-04-16T11:39:15.502Z,31.7
2019-04-16T11:42:15.354Z,30.8
2019-04-16T11:45:15.187Z,29.9
2019-04-16T11:48:15.976Z,29.3
2019-04-16T11:51:16.028Z,28.7
2019-04-16T11:54:15.795Z,28.1
2019-04-16T11:57:15.722Z,27.3
2019-04-16T12:00:15.721Z,26.9
2019-04-16T12:03:15.677Z,26.6
2019-04-16T12:06:27.162Z,26.5
2019-04-16T12:09:15.951Z,26.7
2019-04-16T12:12:15.401Z,26.6
2019-04-16T12:15:15.245Z,26.3
2019-04-16T12:18:15.560Z,26.0
2019-04-16T12:21:15.600Z,26.0
2019-04-16T12:24:18.477Z,26.0
2019-04-16T12:27:15.728Z,26.1
2019-04-16T12:30:15.789Z,26.1
2019-04-16T12:33:15.588Z,25.7
2019-04-16T12:36:15.173Z,25.4
2019-04-16T12:39:18.977Z,25.5
2019-04-16T12:42:15.838Z,25.9
2019-04-16T12:45:15.815Z,26.2
2019-04-16T12:48:15.951Z,26.4
2019-04-16T12:51:15.932Z,26.3
2019-04-16T12:54:15.006Z,26.1
2019-04-16T12:57:16.575Z,25.7
2019-04-16T13:00:15.096Z,25.0
2019-04-16T13:03:17.535Z,24.4
2019-04-16T13:06:15.626Z,24.3
2019-04-16T13:09:15.055Z,24.4
2019-04-16T13:12:15.649Z,24.6
2019-04-16T13:15:15.392Z,24.7
2019-04-16T13:18:15.564Z,24.8
2019-04-16T13:21:15.275Z,24.9
2019-04-16T13:24:15.435Z,24.9
2019-04-16T13:27:15.291Z,25.1
2019-04-16T13:30:15.096Z,25.4
2019-04-16T13:33:15.799Z,25.5
2019-04-16T13:36:15.542Z,25.6
2019-04-16T13:39:15.199Z,25.6
2019-04-16T13:42:15.050Z,25.9
2019-04-16T13:45:18.499Z,26.0
2019-04-16T13:48:17.625Z,25.9
2019-04-16T13:51:18.458Z,26.0
2019-04-16T13:54:15.614Z,25.9
2019-04-16T13:57:14.965Z,26.0
2019-04-16T14:00:15.135Z,26.1
2019-04-16T14:03:15.764Z,25.7
2019-04-16T14:06:15.381Z,25.4
2019-04-16T14:09:15.238Z,25.2
2019-04-16T14:12:14.980Z,25.2
2019-04-16T14:15:30.791Z,25.2
2019-04-16T14:18:14.977Z,25.1
2019-04-16T14:21:15.083Z,25.0
2019-04-16T14:24:15.755Z,24.6
2019-04-16T14:27:15.444Z,24.3
2019-04-16T14:30:15.174Z,24.0
2019-04-16T14:33:15.544Z,23.8
2019-04-16T14:36:15.859Z,23.7
2019-04-16T14:39:15.582Z,23.7
2019-04-16T14:42:15.363Z,23.6
2019-04-16T14:45:15.275Z,23.4
2019-04-16T14:48:15.774Z,23.4
2019-04-16T14:51:14.981Z,23.3
2019-04-16T14:54:15.837Z,23.2
2019-04-16T14:57:15.795Z,23.2
2019-04-16T15:00:15.425Z,23.2
2019-04-16T15:03:15.527Z,23.0
2019-04-16T15:06:17.062Z,22.9
2019-04-16T15:09:15.791Z,22.9
2019-04-16T15:12:15.664Z,22.9
2019-04-16T15:15:15.673Z,22.9
2019-04-16T15:18:15.194Z,22.9
2019-04-16T15:21:15.039Z,22.8
2019-04-16T15:24:15.479Z,22.7
2019-04-16T15:27:15.176Z,22.7
2019-04-16T15:30:15.186Z,22.7
2019-04-16T15:33:15.837Z,22.7
2019-04-16T15:36:18.781Z,22.7
2019-04-16T15:39:15.066Z,22.8
2019-04-16T15:42:17.219Z,22.7
2019-04-16T15:45:15.914Z,22.6
2019-04-16T15:48:17.969Z,22.6
2019-04-16T15:51:15.593Z,22.6
2019-04-16T15:54:14.963Z,22.7
2019-04-16T15:57:15.270Z,22.6
2019-04-16T16:00:15.286Z,22.6
2019-04-16T16:03:16.000Z,22.4
2019-04-16T16:06:16.784Z,22.2
2019-04-16T16:09:15.057Z,22.1
2019-04-16T16:12:15.847Z,22.0
2019-04-16T16:15:15.450Z,21.8
2019-04-16T16:18:15.073Z,21.8
2019-04-16T16:21:15.799Z,21.7
2019-04-16T16:24:15.395Z,21.7
2019-04-16T16:27:14.980Z,21.6
2019-04-16T16:30:15.746Z,21.5
2019-04-16T16:33:15.495Z,21.4
2019-04-16T16:36:15.256Z,21.3
2019-04-16T16:39:15.094Z,21.2
2019-04-16T16:42:15.758Z,21.0
2019-04-16T16:45:15.538Z,20.8
2019-04-16T16:48:15.483Z,20.8
2019-04-16T16:51:15.656Z,20.7
2019-04-16T16:54:15.489Z,20.6
2019-04-16T16:57:15.006Z,20.5
2019-04-16T17:00:15.520Z,20.4
2019-04-16T17:03:14.991Z,20.3
2019-04-16T17:06:15.761Z,20.2
2019-04-16T17:09:15.741Z,20.0
2019-04-16T17:12:15.838Z,19.9
2019-04-16T17:15:15.576Z,19.8
2019-04-16T17:18:15.318Z,19.7
2019-04-16T17:21:15.880Z,19.6
2019-04-16T17:24:15.556Z,19.4
2019-04-16T17:27:15.581Z,19.3
2019-04-16T17:30:15.153Z,19.2
2019-04-16T17:33:15.960Z,19.1
2019-04-16T17:36:15.815Z,19.1
2019-04-16T17:39:15.805Z,19.1
2019-04-16T17:42:15.513Z,19.1
2019-04-16T17:45:15.843Z,19.0
2019-04-16T17:48:18.077Z,19.0
2019-04-16T17:51:15.267Z,18.9
2019-04-16T17:54:15.315Z,18.9
2019-04-16T17:57:14.965Z,18.8
2019-04-16T18:00:21.076Z,18.8
2019-04-16T18:03:16.520Z,18.7
2019-04-16T18:06:16.297Z,18.6
2019-04-16T18:09:15.339Z,18.6
2019-04-16T18:12:20.763Z,18.5
2019-04-16T18:15:15.132Z,18.5
2019-04-16T18:18:25.873Z,18.4
2019-04-16T18:21:16.407Z,18.4
2019-04-16T18:24:14.955Z,18.3
2019-04-16T18:27:15.679Z,18.2
2019-04-16T18:30:15.437Z,18.1
2019-04-16T18:33:15.146Z,18.1
2019-04-16T18:36:21.610Z,18.0
2019-04-16T18:39:15.150Z,17.9
2019-04-16T18:42:20.710Z,17.9
2019-04-16T18:45:16.597Z,17.8
2019-04-16T18:48:16.494Z,17.8
2019-04-16T18:51:15.761Z,17.8
2019-04-16T18:54:15.829Z,17.7
2019-04-16T18:57:15.919Z,17.7
2019-04-16T19:00:15.800Z,17.7
2019-04-16T19:03:15.951Z,17.6
2019-04-16T19:06:15.338Z,17.5
2019-04-16T19:09:16.139Z,17.5
2019-04-16T19:12:15.245Z,17.4
2019-04-16T19:15:15.477Z,17.4
2019-04-16T19:18:18.950Z,17.3
2019-04-16T19:21:15.262Z,17.1
2019-04-16T19:24:15.383Z,17.0
2019-04-16T19:27:15.540Z,17.0
2019-04-16T19:30:15.458Z,17.0
2019-04-16T19:33:15.330Z,16.9
2019-04-16T19:36:14.997Z,16.9
2019-04-16T19:39:15.844Z,16.8
2019-04-16T19:42:15.532Z,16.7
2019-04-16T19:45:15.271Z,16.6
2019-04-16T19:48:17.928Z,16.6
2019-04-16T19:51:19.304Z,16.4
2019-04-16T19:54:15.162Z,16.4
2019-04-16T19:57:15.361Z,16.4
2019-04-16T20:00:22.070Z,16.3
2019-04-16T20:03:15.466Z,16.3
2019-04-16T20:06:15.760Z,16.2
2019-04-16T20:09:15.476Z,16.2
2019-04-16T20:12:15.292Z,16.1
2019-04-16T20:15:15.611Z,16.1
2019-04-16T20:18:15.288Z,16.1
2019-04-16T20:21:15.508Z,16.0
2019-04-16T20:24:15.300Z,15.9
2019-04-16T20:27:15.208Z,15.8
2019-04-16T20:30:15.239Z,15.7
2019-04-16T20:33:15.993Z,15.8
2019-04-16T20:36:15.616Z,15.7
2019-04-16T20:39:15.277Z,15.7
2019-04-16T20:42:15.877Z,15.7
2019-04-16T20:45:15.865Z,15.7
2019-04-16T20:48:17.807Z,15.6
2019-04-16T20:51:14.994Z,15.6
2019-04-16T20:54:15.848Z,15.6
2019-04-16T20:57:15.658Z,15.6
2019-04-16T21:00:15.284Z,15.6
2019-04-16T21:03:22.248Z,15.6
2019-04-16T21:06:15.547Z,15.6
2019-04-16T21:09:15.945Z,15.6
2019-04-16T21:12:15.971Z,15.6
2019-04-16T21:15:15.619Z,15.6
2019-04-16T21:18:15.585Z,15.6
2019-04-16T21:21:15.451Z,15.6
2019-04-16T21:24:15.071Z,15.5
2019-04-16T21:27:15.829Z,15.5
2019-04-16T21:30:15.619Z,15.5
2019-04-16T21:33:17.663Z,15.5
2019-04-16T21:36:15.495Z,15.4
2019-04-16T21:39:17.455Z,15.5
2019-04-16T21:42:15.122Z,15.5
2019-04-16T21:45:16.449Z,15.4
2019-04-16T21:48:15.743Z,15.4
2019-04-16T21:51:18.989Z,15.4
2019-04-16T21:54:15.243Z,15.4
2019-04-16T21:57:15.883Z,15.4
2019-04-16T22:00:15.553Z,15.4
2019-04-16T22:03:15.522Z,15.3
2019-04-16T22:06:19.763Z,15.3
2019-04-16T22:09:15.169Z,15.3
2019-04-16T22:12:16.291Z,15.3
2019-04-16T22:15:15.874Z,15.3
2019-04-16T22:18:15.745Z,15.3
2019-04-16T22:21:15.490Z,15.3
2019-04-16T22:24:15.299Z,15.3
2019-04-16T22:27:15.940Z,15.2
2019-04-16T22:30:19.181Z,15.1
2019-04-16T22:33:15.871Z,15.1
2019-04-16T22:36:15.430Z,15.0
2019-04-16T22:39:15.136Z,15.0
2019-04-16T22:42:15.243Z,15.0
2019-04-16T22:45:15.691Z,14.9
2019-04-16T22:48:15.846Z,15.0
2019-04-16T22:51:15.375Z,15.0
2019-04-16T22:54:17.626Z,15.0
2019-04-16T22:57:15.208Z,14.9
2019-04-16T23:00:15.252Z,14.9
2019-04-16T23:03:16.646Z,14.9
2019-04-16T23:06:15.811Z,14.9
2019-04-16T23:09:17.176Z,14.9
2019-04-16T23:12:15.288Z,14.9
2019-04-16T23:15:15.844Z,14.8
2019-04-16T23:18:17.665Z,14.8
2019-04-16T23:21:15.897Z,14.9
2019-04-16T23:24:15.351Z,14.9
2019-04-16T23:27:15.050Z,14.8
2019-04-16T23:30:15.781Z,14.8
2019-04-16T23:33:15.022Z,14.8
2019-04-16T23:36:16.649Z,14.8
2019-04-16T23:39:15.408Z,14.7
2019-04-16T23:42:18.790Z,14.7
2019-04-16T23:45:15.253Z,14.6
2019-04-16T23:48:15.739Z,14.5
2019-04-16T23:51:14.923Z,14.4
2019-04-16T23:54:15.296Z,14.4
2019-04-16T23:57:15.516Z,14.3
